Time;durP1;ratioP1;P1;durP2;ratioP2;P2;SDS_P1;SDS_P2;PMS_P1;PMS_P2;Temp;Humidity;BMP_temperature;BMP_pressure;BME280_temperature;BME280_humidity;BME280_pressure;Samples;Min_cycle;Max_cycle;Signal;HPM_P1;HPM_P2
2023/12/04 00:00:39;;;;;;;9.65;5.38;;;-8.50;98.40;;;;;;2034491;28;20330;-72
2023/12/04 00:01:46;;;;;;;11.37;5.53;;;-8.50;98.80;;;;;;2050143;28;20382;-72
2023/12/04 00:02:47;;;;;;;10.50;6.53;;;-8.50;99.40;;;;;;2038714;28;20224;-73
2023/12/04 00:03:48;;;;;;;9.23;5.67;;;-8.50;99.90;;;;;;2033876;28;20231;-72
2023/12/04 00:04:49;;;;;;;10.23;6.63;;;-8.40;99.90;;;;;;2033199;29;20203;-75
2023/12/04 00:05:50;;;;;;;9.77;5.77;;;-8.40;99.70;;;;;;2050136;28;20254;-72
2023/12/04 00:06:51;;;;;;;9.57;6.15;;;-8.40;99.30;;;;;;2041092;28;20291;-72
2023/12/04 00:07:51;;;;;;;8.85;5.30;;;-8.30;99.30;;;;;;2043029;28;20194;-70
2023/12/04 00:08:53;;;;;;;11.87;6.53;;;-8.30;99.00;;;;;;2051542;28;20222;-71
2023/12/04 00:09:54;;;;;;;9.77;6.03;;;-8.20;99.00;;;;;;2045821;28;20198;-72
2023/12/04 00:10:55;;;;;;;8.83;5.43;;;-8.30;98.60;;;;;;2030504;28;20285;-72
2023/12/04 00:11:56;;;;;;;10.17;5.90;;;-8.40;98.70;;;;;;2035292;28;20278;-77
2023/12/04 00:12:56;;;;;;;10.77;5.25;;;-8.40;99.50;;;;;;2043328;29;20192;-72
2023/12/04 00:13:59;;;;;;;11.57;5.97;;;-8.40;99.50;;;;;;2042622;28;20727;-72
2023/12/04 00:14:59;;;;;;;13.25;6.80;;;-8.40;99.40;;;;;;2043893;28;20241;-72
2023/12/04 00:16:00;;;;;;;12.23;6.97;;;-8.50;99.30;;;;;;2043391;28;20284;-72
2023/12/04 00:17:01;;;;;;;12.07;6.43;;;-8.50;99.00;;;;;;2041341;28;20203;-71
2023/12/04 00:18:02;;;;;;;12.37;5.40;;;-8.50;99.30;;;;;;2043812;28;20194;-71
2023/12/04 00:19:02;;;;;;;10.87;6.20;;;-8.60;98.80;;;;;;2039978;28;20239;-71
2023/12/04 00:20:04;;;;;;;11.37;6.30;;;-8.50;99.10;;;;;;2037825;28;20196;-70
2023/12/04 00:21:05;;;;;;;10.77;5.68;;;-8.50;99.00;;;;;;2063787;28;20248;-70
2023/12/04 00:22:06;;;;;;;12.70;6.57;;;-8.50;98.90;;;;;;2083765;28;20697;-71
2023/12/04 00:23:06;;;;;;;10.70;6.27;;;-8.50;98.90;;;;;;2075308;28;20225;-71
2023/12/04 00:24:07;;;;;;;10.67;6.00;;;-8.40;98.90;;;;;;2069219;28;20233;-71
2023/12/04 00:25:08;;;;;;;10.30;6.53;;;-8.40;99.20;;;;;;2034440;28;20278;-70
2023/12/04 00:26:09;;;;;;;12.97;6.03;;;-8.40;99.40;;;;;;2033748;28;20335;-71
2023/12/04 00:27:10;;;;;;;15.23;6.33;;;-8.40;99.90;;;;;;2034174;28;20278;-71
2023/12/04 00:28:11;;;;;;;8.98;5.05;;;-8.40;99.90;;;;;;2034332;28;20255;-71
2023/12/04 00:29:11;;;;;;;10.60;5.33;;;-8.30;99.90;;;;;;2040468;28;20220;-71
2023/12/04 00:30:12;;;;;;;8.43;5.33;;;-8.30;99.90;;;;;;2042793;28;20913;-71
2023/12/04 00:31:13;;;;;;;13.53;6.40;;;-8.40;99.90;;;;;;2058265;28;20258;-71
2023/12/04 00:32:14;;;;;;;11.33;6.20;;;-8.30;99.90;;;;;;2056968;28;20309;-72
2023/12/04 00:33:14;;;;;;;11.30;6.00;;;-8.20;99.90;;;;;;2054399;28;20217;-71
2023/12/04 00:34:15;;;;;;;11.10;6.20;;;-8.30;99.90;;;;;;2044190;28;20224;-70
2023/12/04 00:35:16;;;;;;;10.13;6.17;;;-8.20;99.90;;;;;;2034241;28;20334;-71
2023/12/04 00:36:19;;;;;;;12.70;6.75;;;-8.10;99.80;;;;;;2026323;28;20265;-71
2023/12/04 00:37:22;;;;;;;8.45;5.70;;;-8.10;99.30;;;;;;2042237;28;20227;-71
2023/12/04 00:38:22;;;;;;;8.23;5.00;;;-8.00;99.00;;;;;;2041914;28;20314;-70
2023/12/04 00:39:23;;;;;;;7.90;4.90;;;-8.00;98.60;;;;;;2048910;28;20223;-71
2023/12/04 00:40:24;;;;;;;9.40;5.17;;;-8.00;98.30;;;;;;2047240;28;20227;-70
2023/12/04 00:41:24;;;;;;;12.53;5.47;;;-8.00;98.70;;;;;;2040294;28;20645;-71
2023/12/04 00:42:25;;;;;;;5.43;3.23;;;-7.90;99.70;;;;;;2047018;28;20256;-71
2023/12/04 00:43:26;;;;;;;2.77;1.97;;;-8.00;99.30;;;;;;2047331;28;20219;-71
2023/12/04 00:44:26;;;;;;;1.87;1.63;;;-7.90;99.90;;;;;;2042458;28;20249;-71
2023/12/04 00:45:27;;;;;;;1.10;1.00;;;-7.80;99.90;;;;;;2042960;28;20667;-71
2023/12/04 00:46:28;;;;;;;1.70;1.23;;;-7.40;99.90;;;;;;2031976;28;20266;-71
2023/12/04 00:47:28;;;;;;;2.40;1.13;;;-7.20;99.90;;;;;;2042706;28;20230;-71
2023/12/04 00:48:29;;;;;;;2.50;2.00;;;-7.20;99.90;;;;;;2050695;28;20653;-71
2023/12/04 00:49:30;;;;;;;8.93;3.63;;;-7.10;99.90;;;;;;2044070;28;20582;-72
2023/12/04 00:50:30;;;;;;;4.80;2.83;;;-7.00;99.90;;;;;;2044454;28;20227;-71
2023/12/04 00:51:38;;;;;;;4.83;3.13;;;-7.00;99.90;;;;;;2043916;28;20255;-71
2023/12/04 00:52:39;;;;;;;6.28;4.38;;;-6.80;99.90;;;;;;2036579;28;20228;-71
2023/12/04 00:53:40;;;;;;;8.60;5.10;;;-6.80;99.90;;;;;;2043581;28;20243;-71
2023/12/04 00:54:40;;;;;;;6.53;3.27;;;-6.80;99.90;;;;;;2043943;28;20655;-73
2023/12/04 00:55:41;;;;;;;3.70;1.90;;;-6.90;99.90;;;;;;2043939;28;20319;-71
2023/12/04 00:56:42;;;;;;;5.53;3.13;;;-6.90;99.90;;;;;;2043831;28;20769;-71
2023/12/04 00:57:43;;;;;;;4.20;2.93;;;-6.90;99.90;;;;;;2037989;28;20772;-71
2023/12/04 00:58:44;;;;;;;4.83;2.80;;;-6.90;99.90;;;;;;2030287;28;20472;-71
2023/12/04 00:59:44;;;;;;;5.87;3.53;;;-6.90;99.90;;;;;;2043825;28;20223;-71
2023/12/04 01:00:48;;;;;;;4.00;2.17;;;-6.90;99.90;;;;;;2037886;28;20232;-71
2023/12/04 01:01:48;;;;;;;2.25;1.65;;;-6.80;99.90;;;;;;2029498;28;20248;-71
2023/12/04 01:02:49;;;;;;;1.80;1.43;;;-6.80;99.90;;;;;;2042017;28;20283;-72
2023/12/04 01:03:50;;;;;;;1.90;1.50;;;-6.60;99.90;;;;;;2043478;28;20198;-71
2023/12/04 01:04:51;;;;;;;1.37;1.20;;;-6.50;99.90;;;;;;2044942;28;20646;-71
2023/12/04 01:05:52;;;;;;;2.20;1.40;;;-6.40;99.90;;;;;;2051557;28;20222;-71
2023/12/04 01:06:53;;;;;;;1.73;1.23;;;-6.30;99.90;;;;;;2043951;28;20574;-71
2023/12/04 01:07:53;;;;;;;2.05;0.95;;;-6.20;99.90;;;;;;2035485;28;20188;-72
2023/12/04 01:08:55;;;;;;;1.47;1.37;;;-6.10;99.90;;;;;;2044128;28;20570;-71
2023/12/04 01:09:56;;;;;;;1.58;0.93;;;-6.10;99.90;;;;;;2052768;28;20196;-72
2023/12/04 01:10:58;;;;;;;3.53;2.73;;;-6.00;99.90;;;;;;2056788;28;20225;-71
2023/12/04 01:11:58;;;;;;;6.85;4.40;;;-5.90;99.90;;;;;;2052715;28;20191;-72
2023/12/04 01:12:59;;;;;;;3.63;2.90;;;-5.90;99.90;;;;;;2057746;28;20179;-71
2023/12/04 01:14:00;;;;;;;3.63;2.10;;;-5.90;99.90;;;;;;2042862;28;20193;-71
2023/12/04 01:15:03;;;;;;;3.07;2.33;;;-5.90;99.90;;;;;;2042333;28;20620;-71
2023/12/04 01:16:04;;;;;;;4.80;3.00;;;-5.80;99.90;;;;;;2049364;28;20249;-71
2023/12/04 01:17:06;;;;;;;6.40;3.47;;;-5.80;99.90;;;;;;2054975;28;20208;-71
2023/12/04 01:18:07;;;;;;;6.03;3.38;;;-5.90;99.90;;;;;;2052519;28;20744;-71
2023/12/04 01:19:07;;;;;;;4.27;3.00;;;-6.00;99.70;;;;;;2045355;28;20310;-71
2023/12/04 01:20:09;;;;;;;5.93;3.57;;;-6.20;99.30;;;;;;2052025;28;20643;-71
2023/12/04 01:21:10;;;;;;;6.20;3.25;;;-6.20;99.40;;;;;;2045368;28;20286;-71
2023/12/04 01:22:11;;;;;;;5.82;3.35;;;-6.20;99.40;;;;;;2043860;28;20228;-71
2023/12/04 01:23:13;;;;;;;4.00;2.80;;;-6.30;99.00;;;;;;2043024;28;20242;-72
2023/12/04 01:24:15;;;;;;;6.70;3.30;;;-6.30;99.00;;;;;;2041210;28;20262;-71
2023/12/04 01:25:16;;;;;;;7.93;4.03;;;-6.30;99.70;;;;;;2044458;28;20789;-71
2023/12/04 01:26:17;;;;;;;5.28;3.45;;;-6.30;99.90;;;;;;2062058;28;20252;-71
2023/12/04 01:27:18;;;;;;;5.13;2.77;;;-6.50;99.90;;;;;;2074814;28;20709;-71
2023/12/04 01:28:19;;;;;;;4.88;2.65;;;-6.40;99.90;;;;;;2073022;28;20222;-71
2023/12/04 01:29:19;;;;;;;3.70;2.30;;;-6.50;99.90;;;;;;2072357;28;20574;-72
2023/12/04 01:30:20;;;;;;;2.00;1.50;;;-6.50;99.90;;;;;;2064109;28;20280;-71
2023/12/04 01:31:21;;;;;;;1.40;1.30;;;-6.40;99.90;;;;;;2029236;29;20244;-72
2023/12/04 01:32:21;;;;;;;2.97;2.03;;;-6.40;99.90;;;;;;2038834;28;20658;-71
2023/12/04 01:33:22;;;;;;;5.90;3.50;;;-6.30;99.90;;;;;;2060716;28;20225;-71
2023/12/04 01:34:23;;;;;;;3.67;2.63;;;-6.20;99.90;;;;;;2052023;28;20231;-73
2023/12/04 01:35:23;;;;;;;3.80;2.67;;;-6.20;99.90;;;;;;2041196;28;20219;-71
2023/12/04 01:36:24;;;;;;;2.17;1.90;;;-6.30;99.90;;;;;;2044756;28;20711;-71
2023/12/04 01:37:25;;;;;;;2.57;1.40;;;-6.30;99.90;;;;;;2043524;28;20275;-71
2023/12/04 01:38:26;;;;;;;1.57;1.10;;;-6.20;99.90;;;;;;2052622;28;20225;-71
2023/12/04 01:39:26;;;;;;;1.90;0.90;;;-6.20;99.90;;;;;;2038603;28;20224;-71
2023/12/04 01:40:27;;;;;;;4.60;3.00;;;-6.10;99.90;;;;;;2028022;29;20225;-71
2023/12/04 01:41:28;;;;;;;4.77;2.63;;;-6.10;99.90;;;;;;2037384;28;20225;-71
2023/12/04 01:42:28;;;;;;;5.80;3.10;;;-6.10;99.90;;;;;;2028089;28;20571;-71
2023/12/04 01:43:29;;;;;;;6.17;3.57;;;-6.10;99.90;;;;;;2041469;28;20270;-71
2023/12/04 01:44:30;;;;;;;5.87;3.53;;;-6.20;99.90;;;;;;2043821;28;20219;-71
2023/12/04 01:45:31;;;;;;;7.43;4.00;;;-6.30;99.90;;;;;;2043811;28;20258;-71
2023/12/04 01:46:31;;;;;;;4.27;3.00;;;-6.40;99.90;;;;;;2034197;28;20311;-71
2023/12/04 01:47:32;;;;;;;2.60;1.60;;;-6.40;99.90;;;;;;2037024;28;21029;-71
2023/12/04 01:48:33;;;;;;;2.58;1.63;;;-6.40;99.90;;;;;;2060230;28;20692;-71
2023/12/04 01:49:34;;;;;;;4.80;3.40;;;-6.40;99.90;;;;;;2068813;28;20218;-71
2023/12/04 01:50:36;;;;;;;2.47;1.83;;;-6.30;99.90;;;;;;2069058;28;20459;-71
2023/12/04 01:51:37;;;;;;;5.28;3.08;;;-6.30;99.90;;;;;;2068987;28;20229;-71
2023/12/04 01:52:38;;;;;;;5.20;2.87;;;-6.30;99.90;;;;;;2063112;28;20712;-71
2023/12/04 01:53:40;;;;;;;3.30;2.63;;;-6.30;99.90;;;;;;2070627;28;20724;-71
2023/12/04 01:54:41;;;;;;;5.70;3.13;;;-6.40;99.90;;;;;;2090721;28;20231;-71
2023/12/04 01:55:42;;;;;;;5.33;3.93;;;-6.40;99.90;;;;;;2081842;28;20218;-71
2023/12/04 01:56:43;;;;;;;6.50;2.50;;;-6.50;99.50;;;;;;2069451;28;20231;-71
2023/12/04 01:57:45;;;;;;;6.22;3.38;;;-6.50;99.60;;;;;;2074684;28;20228;-71
2023/12/04 01:58:46;;;;;;;8.80;2.92;;;-6.50;99.30;;;;;;2075056;28;20245;-71
2023/12/04 01:59:47;;;;;;;5.50;3.30;;;-6.70;98.70;;;;;;2035137;29;20228;-73
2023/12/04 02:00:47;;;;;;;6.77;3.07;;;-6.70;98.60;;;;;;2046266;28;20223;-71
2023/12/04 02:01:49;;;;;;;7.77;3.80;;;-6.80;98.60;;;;;;2051160;28;20195;-71
2023/12/04 02:02:50;;;;;;;4.30;3.38;;;-6.80;98.30;;;;;;2076469;28;20189;-71
2023/12/04 02:03:50;;;;;;;5.33;3.30;;;-6.90;97.90;;;;;;2067725;28;20202;-71
2023/12/04 02:04:54;;;;;;;5.63;3.40;;;-6.90;98.00;;;;;;2077448;28;20279;-71
2023/12/04 02:05:59;;;;;;;3.70;2.50;;;-7.00;98.30;;;;;;2038571;28;20219;-72
2023/12/04 02:06:59;;;;;;;6.30;3.58;;;-7.10;98.50;;;;;;2042993;28;20282;-71
2023/12/04 02:08:00;;;;;;;4.47;3.10;;;-7.20;98.70;;;;;;2051288;28;20328;-71
2023/12/04 02:09:02;;;;;;;6.40;2.90;;;-7.20;99.00;;;;;;2045331;28;20418;-72
2023/12/04 02:10:04;;;;;;;3.28;2.03;;;-7.30;99.90;;;;;;2041796;28;20183;-71
2023/12/04 02:11:05;;;;;;;2.80;2.17;;;-7.20;99.90;;;;;;2040897;28;20677;-71
2023/12/04 02:12:06;;;;;;;4.18;2.53;;;-7.10;99.90;;;;;;2039058;28;20698;-71
2023/12/04 02:13:07;;;;;;;4.60;2.80;;;-7.00;99.90;;;;;;2093875;28;20334;-71
2023/12/04 02:14:08;;;;;;;4.03;2.60;;;-6.90;99.90;;;;;;2074191;28;20954;-71
2023/12/04 02:15:09;;;;;;;5.03;2.42;;;-6.90;99.90;;;;;;2036012;28;20239;-71
2023/12/04 02:16:12;;;;;;;5.67;2.70;;;-6.90;99.90;;;;;;2037425;28;20290;-71
2023/12/04 02:17:14;;;;;;;4.35;2.15;;;-6.90;99.90;;;;;;2033450;28;20837;-71
2023/12/04 02:18:16;;;;;;;3.55;2.50;;;-6.90;99.90;;;;;;2070744;28;20217;-72
2023/12/04 02:19:17;;;;;;;4.03;2.90;;;-6.90;99.90;;;;;;2060717;28;20227;-71
2023/12/04 02:20:17;;;;;;;6.80;2.97;;;-6.90;99.90;;;;;;2076887;28;20222;-73
2023/12/04 02:21:18;;;;;;;4.33;3.23;;;-7.00;99.90;;;;;;2077523;28;20684;-71
2023/12/04 02:22:19;;;;;;;4.67;3.20;;;-7.00;99.90;;;;;;2076800;28;20232;-71
2023/12/04 02:23:20;;;;;;;6.13;3.20;;;-6.90;99.90;;;;;;2076460;28;20647;-71
2023/12/04 02:24:20;;;;;;;7.03;3.00;;;-6.90;99.90;;;;;;2076675;28;20237;-71
2023/12/04 02:25:21;;;;;;;4.00;2.87;;;-7.00;99.90;;;;;;2076811;28;20223;-71
2023/12/04 02:26:29;;;;;;;7.23;3.50;;;-7.00;99.90;;;;;;2076727;28;20279;-71
2023/12/04 02:27:40;;;;;;;7.78;3.67;;;-7.00;99.90;;;;;;2068008;28;20222;-71
2023/12/04 02:28:42;;;;;;;3.85;2.60;;;-7.00;99.90;;;;;;2066563;28;20300;-71
2023/12/04 02:29:59;;;;;;;4.05;2.45;;;-7.00;99.80;;;;;;2066805;28;20736;-71
2023/12/04 02:31:01;;;;;;;3.55;2.10;;;-7.00;99.60;;;;;;2029332;28;20312;-71
2023/12/04 02:32:05;;;;;;;3.55;2.10;;;-7.00;99.60;;;;;;2040580;28;20250;-71
2023/12/04 02:33:07;;;;;;;5.22;2.83;;;-7.00;99.60;;;;;;2045610;28;20624;-71
2023/12/04 02:34:10;;;;;;;2.10;1.80;;;-7.10;99.40;;;;;;2040221;29;20298;-71
2023/12/04 02:35:14;;;;;;;3.38;2.72;;;-7.10;99.60;;;;;;2042556;28;20697;-71
2023/12/04 02:36:15;;;;;;;3.55;2.55;;;-7.10;99.70;;;;;;2037446;28;20247;-71
2023/12/04 02:37:17;;;;;;;4.57;2.65;;;-7.00;99.80;;;;;;2037975;28;20226;-71
2023/12/04 02:38:19;;;;;;;2.92;2.40;;;-7.10;99.80;;;;;;2038032;28;20721;-71
2023/12/04 02:39:20;;;;;;;4.37;3.20;;;-7.00;99.90;;;;;;2030881;28;20225;-71
2023/12/04 02:40:22;;;;;;;5.20;2.97;;;-7.00;99.90;;;;;;2030543;28;20346;-71
2023/12/04 02:41:23;;;;;;;4.55;2.53;;;-6.80;99.90;;;;;;2055326;28;20221;-71
2023/12/04 02:42:25;;;;;;;4.10;2.10;;;-6.80;99.90;;;;;;2072852;28;20225;-71
2023/12/04 02:43:26;;;;;;;4.55;2.50;;;-6.80;99.90;;;;;;2061702;28;20232;-71
2023/12/04 02:44:26;;;;;;;3.13;2.10;;;-6.70;99.90;;;;;;2053122;28;20227;-71
2023/12/04 02:45:27;;;;;;;2.53;1.83;;;-6.70;99.80;;;;;;2042130;28;20225;-71
2023/12/04 02:46:27;;;;;;;4.90;2.13;;;-6.70;99.70;;;;;;2026354;28;20729;-70
2023/12/04 02:47:28;;;;;;;3.30;2.57;;;-6.70;99.80;;;;;;2034924;28;20243;-71
2023/12/04 02:48:29;;;;;;;4.13;2.57;;;-6.70;99.90;;;;;;2034198;28;20227;-71
2023/12/04 02:49:29;;;;;;;3.33;2.50;;;-6.70;99.90;;;;;;2033550;29;20698;-71
2023/12/04 02:50:30;;;;;;;2.33;1.80;;;-6.70;99.90;;;;;;2029661;29;20237;-71
2023/12/04 02:51:31;;;;;;;2.43;1.63;;;-6.70;99.90;;;;;;2037854;28;20224;-71
2023/12/04 02:52:31;;;;;;;2.73;1.40;;;-6.60;99.90;;;;;;2042211;28;20615;-71
2023/12/04 02:53:32;;;;;;;3.17;2.00;;;-6.50;99.90;;;;;;2029342;28;20440;-70
2023/12/04 02:54:33;;;;;;;2.13;1.53;;;-6.50;99.90;;;;;;2029530;28;20727;-71
2023/12/04 02:55:34;;;;;;;1.50;1.40;;;-6.40;99.90;;;;;;2023877;28;20670;-71
2023/12/04 02:56:34;;;;;;;2.10;1.43;;;-6.30;99.90;;;;;;2029167;29;20221;-71
2023/12/04 02:57:35;;;;;;;1.43;1.27;;;-6.20;99.90;;;;;;2050747;28;20767;-72
2023/12/04 02:58:36;;;;;;;2.00;1.40;;;-6.10;99.90;;;;;;2072367;28;20217;-71
2023/12/04 02:59:36;;;;;;;2.20;1.50;;;-6.00;99.90;;;;;;2048348;28;20722;-71
2023/12/04 03:00:37;;;;;;;2.57;1.37;;;-5.90;99.90;;;;;;2037102;28;20257;-71
2023/12/04 03:01:38;;;;;;;1.63;1.20;;;-5.80;99.90;;;;;;2037804;28;20236;-71
2023/12/04 03:02:38;;;;;;;3.70;1.83;;;-5.70;99.90;;;;;;2040951;28;20236;-71
2023/12/04 03:03:39;;;;;;;2.47;1.47;;;-5.70;99.90;;;;;;2029894;28;20312;-71
2023/12/04 03:04:40;;;;;;;2.30;1.53;;;-5.70;99.90;;;;;;2044335;28;20279;-71
2023/12/04 03:05:41;;;;;;;2.73;1.63;;;-5.60;99.90;;;;;;2092573;28;20354;-71
2023/12/04 03:06:41;;;;;;;3.03;2.00;;;-5.50;99.90;;;;;;2093204;28;20744;-71
2023/12/04 03:07:42;;;;;;;4.20;2.57;;;-5.40;99.90;;;;;;2049251;28;20226;-71
2023/12/04 03:08:43;;;;;;;2.67;1.60;;;-5.40;99.90;;;;;;2038962;28;20255;-71
2023/12/04 03:09:43;;;;;;;2.70;1.90;;;-5.40;99.90;;;;;;2036249;28;20232;-71
2023/12/04 03:10:44;;;;;;;2.40;1.83;;;-5.40;99.90;;;;;;2034823;28;20369;-71
2023/12/04 03:11:45;;;;;;;3.77;1.63;;;-5.30;99.90;;;;;;2034422;29;20357;-71
2023/12/04 03:12:45;;;;;;;3.40;2.17;;;-5.30;99.90;;;;;;2039821;28;20260;-71
2023/12/04 03:13:46;;;;;;;3.43;2.20;;;-5.20;99.90;;;;;;2036988;29;20237;-71
2023/12/04 03:14:47;;;;;;;2.60;1.80;;;-5.10;99.90;;;;;;2028016;29;20768;-71
2023/12/04 03:15:48;;;;;;;2.60;1.57;;;-5.10;99.90;;;;;;2028775;29;20269;-72
2023/12/04 03:16:49;;;;;;;2.93;2.13;;;-5.10;99.90;;;;;;2031685;28;20191;-72
2023/12/04 03:17:52;;;;;;;1.40;1.30;;;-5.00;99.90;;;;;;2047055;28;20268;-72
2023/12/04 03:18:52;;;;;;;1.65;1.45;;;-5.00;99.90;;;;;;2046864;28;20203;-71
2023/12/04 03:19:53;;;;;;;1.83;1.40;;;-4.90;99.90;;;;;;2028951;28;20278;-71
2023/12/04 03:20:54;;;;;;;2.00;1.20;;;-5.00;99.90;;;;;;2040758;28;20695;-71
2023/12/04 03:21:55;;;;;;;3.45;1.42;;;-4.90;99.90;;;;;;2038564;28;20559;-72
2023/12/04 03:22:55;;;;;;;2.37;1.77;;;-4.90;99.90;;;;;;2036242;28;20191;-71
2023/12/04 03:23:56;;;;;;;2.80;1.73;;;-4.90;99.90;;;;;;2044475;28;20198;-72
2023/12/04 03:24:57;;;;;;;2.73;1.73;;;-4.90;99.90;;;;;;2057855;28;20223;-71
2023/12/04 03:25:57;;;;;;;2.47;1.57;;;-4.90;99.90;;;;;;2018828;29;20224;-71
2023/12/04 03:26:58;;;;;;;2.00;1.50;;;-4.90;99.90;;;;;;2037007;29;20669;-71
2023/12/04 03:27:59;;;;;;;2.60;1.40;;;-4.80;99.90;;;;;;2052935;28;20191;-72
2023/12/04 03:28:59;;;;;;;1.77;1.37;;;-4.90;99.90;;;;;;2039826;28;20230;-71
2023/12/04 03:30:00;;;;;;;2.23;1.60;;;-5.00;99.90;;;;;;2030858;28;20278;-71
2023/12/04 03:31:02;;;;;;;1.97;1.43;;;-5.10;99.90;;;;;;2028716;28;20241;-71
2023/12/04 03:32:03;;;;;;;2.25;1.45;;;-5.00;99.90;;;;;;2046258;28;20200;-71
2023/12/04 03:33:04;;;;;;;2.33;1.88;;;-4.90;99.90;;;;;;2054950;28;20189;-71
2023/12/04 03:34:05;;;;;;;1.77;1.17;;;-4.90;99.90;;;;;;2043701;28;20193;-71
2023/12/04 03:35:06;;;;;;;3.88;1.80;;;-4.90;99.90;;;;;;2043416;28;20190;-72
2023/12/04 03:36:08;;;;;;;2.80;1.27;;;-4.90;99.90;;;;;;2040536;28;21679;-71
2023/12/04 03:37:08;;;;;;;2.33;1.88;;;-4.90;99.80;;;;;;2035817;28;20252;-71
2023/12/04 03:38:09;;;;;;;4.30;2.30;;;-5.00;99.70;;;;;;2034087;28;20239;-72
2023/12/04 03:39:10;;;;;;;3.20;2.60;;;-5.00;99.90;;;;;;2042057;28;20752;-71
2023/12/04 03:40:12;;;;;;;2.50;2.17;;;-5.00;99.90;;;;;;2052229;28;20315;-71
2023/12/04 03:41:16;;;;;;;2.92;1.85;;;-5.00;99.80;;;;;;2039992;28;20746;-71
2023/12/04 03:42:16;;;;;;;3.75;2.05;;;-5.10;99.90;;;;;;2057141;28;20335;-71
2023/12/04 03:43:17;;;;;;;2.40;2.20;;;-5.10;99.90;;;;;;2043025;28;20699;-71
2023/12/04 03:44:18;;;;;;;2.50;1.80;;;-5.10;99.90;;;;;;2054508;28;20276;-71
2023/12/04 03:45:18;;;;;;;2.40;1.77;;;-5.10;99.90;;;;;;2069567;28;20224;-71
2023/12/04 03:46:20;;;;;;;3.53;1.93;;;-5.00;99.90;;;;;;2037137;28;20313;-70
2023/12/04 03:47:20;;;;;;;2.90;1.75;;;-5.10;99.90;;;;;;2037304;28;20289;-72
2023/12/04 03:48:21;;;;;;;3.23;2.40;;;-5.00;99.80;;;;;;2038869;28;20230;-71
2023/12/04 03:49:22;;;;;;;4.70;2.67;;;-5.00;99.80;;;;;;2040480;28;20226;-70
2023/12/04 03:50:24;;;;;;;4.00;2.40;;;-4.90;99.90;;;;;;2037213;29;20293;-70
2023/12/04 03:51:24;;;;;;;3.22;2.42;;;-4.80;99.60;;;;;;2036844;28;20242;-71
2023/12/04 03:52:25;;;;;;;3.20;2.33;;;-4.90;99.20;;;;;;2029611;28;20222;-71
2023/12/04 03:53:29;;;;;;;4.73;2.33;;;-5.00;99.70;;;;;;2021757;28;20287;-71
2023/12/04 03:54:30;;;;;;;2.42;2.20;;;-5.00;99.90;;;;;;2021455;28;20241;-71
2023/12/04 03:55:30;;;;;;;2.73;2.27;;;-5.00;99.90;;;;;;2027072;28;20737;-71
2023/12/04 03:56:31;;;;;;;2.07;1.53;;;-5.10;99.90;;;;;;2036683;28;20258;-71
2023/12/04 03:57:32;;;;;;;2.50;1.53;;;-5.20;99.90;;;;;;2034684;28;20238;-71
2023/12/04 03:58:34;;;;;;;3.23;2.37;;;-5.10;99.90;;;;;;2035690;29;20235;-72
2023/12/04 03:59:34;;;;;;;2.50;2.28;;;-5.10;99.70;;;;;;2037715;28;20269;-71
2023/12/04 04:00:35;;;;;;;2.43;1.93;;;-5.20;99.90;;;;;;2056207;28;20232;-72
2023/12/04 04:01:36;;;;;;;2.10;1.53;;;-5.20;99.90;;;;;;2056641;28;20225;-71
2023/12/04 04:02:38;;;;;;;1.90;1.70;;;-5.20;99.90;;;;;;2060023;28;20753;-71
2023/12/04 04:03:39;;;;;;;1.77;1.52;;;-5.10;99.90;;;;;;2036430;28;20709;-71
2023/12/04 04:04:40;;;;;;;3.83;2.33;;;-5.10;99.90;;;;;;2076364;28;20227;-72
2023/12/04 04:05:40;;;;;;;2.67;1.73;;;-5.10;99.90;;;;;;2081969;28;20226;-70
2023/12/04 04:06:41;;;;;;;3.00;2.13;;;-5.10;99.90;;;;;;2025864;28;20665;-70
2023/12/04 04:07:42;;;;;;;4.63;1.67;;;-5.10;99.90;;;;;;2030394;28;20238;-70
2023/12/04 04:08:43;;;;;;;2.55;2.03;;;-5.10;99.90;;;;;;2040029;28;20233;-70
2023/12/04 04:09:44;;;;;;;3.17;2.07;;;-5.00;99.90;;;;;;2054902;28;20236;-70
2023/12/04 04:10:45;;;;;;;4.75;1.80;;;-4.90;99.90;;;;;;2036883;28;20257;-70
2023/12/04 04:11:46;;;;;;;1.95;1.23;;;-4.90;99.90;;;;;;2068920;28;20286;-70
2023/12/04 04:12:47;;;;;;;1.50;1.40;;;-4.90;99.90;;;;;;2082024;28;20256;-71
2023/12/04 04:13:47;;;;;;;2.63;1.80;;;-4.90;99.90;;;;;;2057023;28;20196;-71
2023/12/04 04:14:48;;;;;;;2.83;1.43;;;-4.80;99.90;;;;;;2041011;28;20320;-71
2023/12/04 04:15:49;;;;;;;2.40;1.57;;;-4.70;99.90;;;;;;2040622;28;20271;-70
2023/12/04 04:16:50;;;;;;;2.60;1.60;;;-4.80;99.90;;;;;;2047543;28;20188;-71
2023/12/04 04:17:50;;;;;;;1.80;1.10;;;-4.70;99.90;;;;;;2052525;28;20223;-70
2023/12/04 04:18:51;;;;;;;1.83;1.20;;;-4.70;99.90;;;;;;2052811;28;20189;-70
2023/12/04 04:19:53;;;;;;;1.10;1.00;;;-4.70;99.90;;;;;;2045901;28;20210;-70
2023/12/04 04:20:54;;;;;;;1.25;1.05;;;-4.60;99.90;;;;;;2056042;28;20228;-71
2023/12/04 04:21:54;;;;;;;1.60;1.07;;;-4.70;99.90;;;;;;2029578;28;20578;-71
2023/12/04 04:22:55;;;;;;;1.65;1.20;;;-4.70;99.90;;;;;;2035112;29;20290;-71
2023/12/04 04:23:56;;;;;;;2.43;1.60;;;-4.70;99.90;;;;;;2026057;28;20286;-71
2023/12/04 04:24:57;;;;;;;1.30;1.13;;;-4.70;99.90;;;;;;2027254;28;20642;-71
2023/12/04 04:25:57;;;;;;;4.17;2.23;;;-4.70;99.90;;;;;;2019948;29;20459;-71
2023/12/04 04:26:58;;;;;;;2.20;1.87;;;-4.70;99.90;;;;;;2012246;28;20713;-70
2023/12/04 04:27:59;;;;;;;2.77;2.03;;;-4.70;99.90;;;;;;2026471;28;20244;-71
2023/12/04 04:28:59;;;;;;;3.07;2.00;;;-4.70;99.90;;;;;;2038622;28;20682;-71
2023/12/04 04:30:01;;;;;;;1.90;1.67;;;-4.80;99.90;;;;;;2034828;28;20193;-71
2023/12/04 04:31:02;;;;;;;3.30;1.75;;;-4.80;99.90;;;;;;2049397;28;20694;-71
2023/12/04 04:32:03;;;;;;;1.97;1.70;;;-4.90;99.90;;;;;;2044138;28;20190;-71
2023/12/04 04:33:04;;;;;;;2.53;1.80;;;-5.00;99.90;;;;;;2037075;28;20570;-70
2023/12/04 04:34:05;;;;;;;2.72;1.35;;;-5.00;99.90;;;;;;2039169;28;20201;-71
2023/12/04 04:35:08;;;;;;;1.70;1.57;;;-5.00;99.90;;;;;;2043738;28;20206;-71
2023/12/04 04:36:10;;;;;;;2.13;1.60;;;-5.00;99.90;;;;;;2040134;28;20246;-71
2023/12/04 04:37:10;;;;;;;2.47;1.80;;;-5.00;99.90;;;;;;2038056;28;20245;-70
2023/12/04 04:38:11;;;;;;;2.13;1.63;;;-4.90;99.90;;;;;;2030854;28;20332;-71
2023/12/04 04:39:13;;;;;;;3.57;2.40;;;-5.00;99.70;;;;;;2042520;28;20345;-70
2023/12/04 04:40:14;;;;;;;2.28;1.67;;;-5.00;99.90;;;;;;2030005;28;20237;-70
2023/12/04 04:41:15;;;;;;;2.27;1.77;;;-5.10;99.90;;;;;;2038648;28;20237;-71
2023/12/04 04:42:16;;;;;;;2.88;1.70;;;-5.10;99.90;;;;;;2042827;28;20320;-71
2023/12/04 04:43:16;;;;;;;1.43;1.30;;;-5.20;99.90;;;;;;2071326;28;20222;-71
2023/12/04 04:44:17;;;;;;;3.87;1.93;;;-5.10;99.90;;;;;;2079841;28;20277;-71
2023/12/04 04:45:18;;;;;;;2.80;1.53;;;-5.20;99.90;;;;;;2038727;28;20761;-71
2023/12/04 04:46:20;;;;;;;1.50;1.40;;;-5.20;99.90;;;;;;2035104;29;20690;-71
2023/12/04 04:47:21;;;;;;;2.70;1.85;;;-5.20;99.90;;;;;;2038742;28;20601;-71
2023/12/04 04:48:22;;;;;;;6.60;1.80;;;-5.20;99.90;;;;;;2039289;28;20241;-71
2023/12/04 04:49:23;;;;;;;4.40;2.07;;;-5.10;99.90;;;;;;2035714;28;20548;-71
2023/12/04 04:50:23;;;;;;;3.20;1.40;;;-5.10;99.90;;;;;;2034674;28;20294;-71
2023/12/04 04:51:24;;;;;;;2.20;1.70;;;-5.10;99.90;;;;;;2039342;28;20227;-71
2023/12/04 04:52:25;;;;;;;2.10;1.90;;;-5.10;99.90;;;;;;2038477;28;20254;-71
2023/12/04 04:53:25;;;;;;;3.27;1.87;;;-5.10;99.90;;;;;;2030470;28;20220;-72
2023/12/04 04:54:26;;;;;;;1.60;1.50;;;-5.20;99.90;;;;;;2068481;28;20305;-71
2023/12/04 04:55:27;;;;;;;3.13;1.80;;;-5.20;99.90;;;;;;2089803;28;20325;-71
2023/12/04 04:56:29;;;;;;;2.22;1.80;;;-5.20;99.90;;;;;;2046216;28;20355;-71
2023/12/04 04:57:30;;;;;;;3.25;2.22;;;-5.20;99.90;;;;;;2032432;28;20233;-71
2023/12/04 04:58:31;;;;;;;3.13;2.03;;;-5.20;99.90;;;;;;2042450;28;20737;-71
2023/12/04 04:59:31;;;;;;;2.80;2.10;;;-5.20;99.90;;;;;;2056229;28;20233;-71
2023/12/04 05:00:32;;;;;;;2.83;1.93;;;-5.20;99.90;;;;;;2051811;28;20233;-71
2023/12/04 05:01:33;;;;;;;2.70;2.20;;;-5.20;99.90;;;;;;2060450;28;20512;-71
2023/12/04 05:02:35;;;;;;;2.37;2.10;;;-5.10;99.90;;;;;;2048294;28;20229;-71
2023/12/04 05:03:36;;;;;;;2.80;2.10;;;-5.10;99.90;;;;;;2044018;28;20884;-71
2023/12/04 05:04:36;;;;;;;2.20;1.67;;;-5.10;99.90;;;;;;2022549;28;20322;-72
2023/12/04 05:05:37;;;;;;;4.23;3.20;;;-5.00;99.90;;;;;;2035510;28;20221;-72
2023/12/04 05:06:38;;;;;;;2.73;2.00;;;-5.00;99.90;;;;;;2066048;28;20229;-71
2023/12/04 05:07:39;;;;;;;3.50;2.38;;;-5.00;99.90;;;;;;2066900;28;20628;-72
2023/12/04 05:08:40;;;;;;;3.90;2.20;;;-4.90;99.90;;;;;;2031952;28;20582;-72
2023/12/04 05:09:40;;;;;;;1.90;1.60;;;-5.00;99.90;;;;;;2030098;28;20326;-72
2023/12/04 05:10:42;;;;;;;3.00;2.03;;;-5.00;99.90;;;;;;2044111;28;20245;-71
2023/12/04 05:11:42;;;;;;;2.85;1.73;;;-4.90;99.90;;;;;;2044184;28;20224;-71
2023/12/04 05:12:43;;;;;;;2.17;1.40;;;-4.90;99.90;;;;;;2038505;28;20315;-71
2023/12/04 05:13:47;;;;;;;4.20;2.33;;;-4.90;99.90;;;;;;2041837;28;20271;-71
2023/12/04 05:14:48;;;;;;;3.25;1.83;;;-5.00;99.90;;;;;;2040204;28;20241;-72
2023/12/04 05:15:48;;;;;;;2.67;1.80;;;-5.00;99.90;;;;;;2039729;28;20198;-72
2023/12/04 05:16:49;;;;;;;4.63;3.20;;;-5.10;99.90;;;;;;2037589;29;20192;-72
2023/12/04 05:17:51;;;;;;;5.80;3.37;;;-5.00;99.90;;;;;;2037477;29;20593;-72